createdAt,value
2023-01-18T00:01:26.102Z,25.90
2023-01-18T00:04:10.823Z,27.88
2023-01-18T00:06:56.713Z,27.35
2023-01-18T00:09:41.473Z,26.67
2023-01-18T00:12:26.464Z,24.38
2023-01-18T00:17:56.013Z,23.40
2023-01-18T00:20:41.091Z,22.90
2023-01-18T00:23:26.015Z,24.52
2023-01-18T00:26:12.127Z,25.15
2023-01-18T00:28:56.925Z,25.50
2023-01-18T00:31:42.151Z,25.83
2023-01-18T00:37:11.827Z,25.33
2023-01-18T00:39:56.856Z,24.90
2023-01-18T00:43:00.732Z,26.13
2023-01-18T00:45:45.402Z,29.95
2023-01-18T00:48:29.918Z,31.08
2023-01-18T00:51:17.999Z,33.33
2023-01-18T00:54:03.251Z,40.85
2023-01-18T00:56:48.084Z,40.67
2023-01-18T00:59:32.871Z,36.13
2023-01-18T01:02:17.425Z,33.35
2023-01-18T01:05:20.736Z,29.80
2023-01-18T01:08:06.339Z,28.80
2023-01-18T01:10:53.139Z,28.17
2023-01-18T01:13:57.020Z,27.38
2023-01-18T01:17:00.442Z,27.98
2023-01-18T01:20:03.804Z,25.27
2023-01-18T01:23:07.254Z,27.48
2023-01-18T01:26:07.153Z,26.83
2023-01-18T01:28:52.672Z,29.13
2023-01-18T01:31:38.086Z,28.88
2023-01-18T01:34:23.443Z,28.70
2023-01-18T01:37:08.093Z,28.92
2023-01-18T01:39:53.138Z,29.77
2023-01-18T01:42:38.168Z,28.15
2023-01-18T01:45:26.415Z,27.40
2023-01-18T01:48:11.375Z,26.95
2023-01-18T01:53:40.978Z,25.85
2023-01-18T01:56:25.730Z,26.08
2023-01-18T01:59:10.865Z,27.08
2023-01-18T02:04:43.621Z,26.20
2023-01-18T02:07:28.547Z,27.35
2023-01-18T02:12:59.833Z,24.77
2023-01-18T02:16:14.671Z,26.88
2023-01-18T02:19:14.756Z,27.67
2023-01-18T02:22:08.570Z,27.30
2023-01-18T02:25:20.261Z,25.75
2023-01-18T02:28:19.435Z,26.58
2023-01-18T02:31:15.847Z,26.65
2023-01-18T02:34:12.840Z,27.10
2023-01-18T02:37:22.151Z,27.20
2023-01-18T02:40:13.107Z,26.75
2023-01-18T02:43:19.259Z,26.67
2023-01-18T02:46:26.884Z,24.77
2023-01-18T02:49:20.571Z,25.30
2023-01-18T02:52:07.903Z,26.38
2023-01-18T02:54:53.274Z,24.80
2023-01-18T02:57:38.097Z,25.65
2023-01-18T03:00:52.591Z,26.13
2023-01-18T03:03:41.823Z,24.60
2023-01-18T03:06:29.604Z,27.05
2023-01-18T03:09:18.235Z,25.77
2023-01-18T03:12:21.108Z,26.50
2023-01-18T03:15:12.443Z,22.98
2023-01-18T03:18:03.278Z,23.17
2023-01-18T03:20:53.836Z,24.30
2023-01-18T03:23:42.187Z,22.95
2023-01-18T03:26:27.957Z,21.77
2023-01-18T03:29:33.053Z,21.38
2023-01-18T03:32:37.121Z,21.85
2023-01-18T03:35:27.285Z,20.25
2023-01-18T03:38:13.139Z,20.33
2023-01-18T03:41:01.337Z,20.20
2023-01-18T03:43:49.747Z,20.45
2023-01-18T03:46:35.012Z,18.75
2023-01-18T03:49:20.194Z,19.52
2023-01-18T03:52:17.035Z,17.85
2023-01-18T03:55:13.508Z,19.10
2023-01-18T03:58:02.819Z,18.83
2023-01-18T04:00:48.120Z,19.75
2023-01-18T04:03:34.122Z,17.75
2023-01-18T04:06:22.222Z,17.77
2023-01-18T04:09:07.996Z,17.15
2023-01-18T04:11:53.073Z,18.88
2023-01-18T04:14:37.684Z,18.52
2023-01-18T04:17:22.661Z,18.65
2023-01-18T04:20:08.783Z,19.58
2023-01-18T04:22:54.539Z,18.45
2023-01-18T04:25:40.223Z,19.58
2023-01-18T04:28:25.993Z,19.58
2023-01-18T04:31:10.977Z,18.13
2023-01-18T04:33:55.809Z,19.63
2023-01-18T04:36:41.009Z,19.33
2023-01-18T04:39:26.254Z,21.17
2023-01-18T04:42:11.001Z,22.75
2023-01-18T04:44:55.837Z,21.45
2023-01-18T04:47:41.007Z,21.80
2023-01-18T04:50:25.876Z,22.92
2023-01-18T04:53:10.847Z,23.55
2023-01-18T04:55:56.161Z,22.83
2023-01-18T04:58:40.905Z,22.67
2023-01-18T05:01:26.272Z,23.30
2023-01-18T05:04:11.670Z,22.70
2023-01-18T05:06:56.520Z,24.13
2023-01-18T05:09:41.476Z,23.48
2023-01-18T05:12:28.240Z,24.90
2023-01-18T05:15:13.013Z,25.98
2023-01-18T05:17:58.760Z,26.23
2023-01-18T05:20:43.785Z,24.85
2023-01-18T05:23:28.275Z,27.00
2023-01-18T05:26:22.031Z,27.27
2023-01-18T05:29:06.844Z,27.88
2023-01-18T05:31:52.532Z,25.98
2023-01-18T05:34:39.885Z,28.85
2023-01-18T05:37:24.876Z,26.27
2023-01-18T05:40:11.132Z,26.67
2023-01-18T05:42:56.541Z,27.98
2023-01-18T05:45:42.496Z,27.00
2023-01-18T05:48:27.479Z,27.30
2023-01-18T05:51:12.835Z,27.80
2023-01-18T05:53:57.440Z,26.08
2023-01-18T05:56:42.635Z,27.98
2023-01-18T05:59:27.491Z,26.67
2023-01-18T06:02:12.472Z,27.88
2023-01-18T06:04:57.733Z,27.67
2023-01-18T06:07:42.404Z,27.23
2023-01-18T06:10:27.779Z,28.27
2023-01-18T06:13:12.606Z,27.45
2023-01-18T06:15:58.802Z,27.77
2023-01-18T06:18:44.432Z,28.25
2023-01-18T06:21:29.683Z,28.60
2023-01-18T06:24:14.447Z,26.50
2023-01-18T06:26:59.760Z,28.65
2023-01-18T06:29:44.459Z,29.55
2023-01-18T06:32:29.231Z,27.08
2023-01-18T06:35:13.901Z,27.40
2023-01-18T06:37:59.177Z,26.73
2023-01-18T06:40:43.768Z,27.88
2023-01-18T06:43:28.888Z,26.33
2023-01-18T06:46:13.930Z,25.20
2023-01-18T06:48:59.231Z,25.73
2023-01-18T06:51:44.091Z,24.30
2023-01-18T06:54:30.344Z,24.98
2023-01-18T06:57:18.801Z,24.63
2023-01-18T07:00:05.595Z,24.50
2023-01-18T07:02:52.425Z,23.95
2023-01-18T07:05:37.156Z,24.08
2023-01-18T07:08:23.055Z,23.40
2023-01-18T07:11:10.051Z,21.75
2023-01-18T07:13:54.998Z,22.67
2023-01-18T07:16:40.122Z,21.02
2023-01-18T07:19:27.890Z,21.20
2023-01-18T07:22:12.680Z,21.50
2023-01-18T07:24:57.506Z,21.48
2023-01-18T07:27:43.055Z,22.23
2023-01-18T07:30:27.976Z,21.50
2023-01-18T07:33:13.119Z,22.95
2023-01-18T07:35:58.518Z,21.58
2023-01-18T07:38:44.312Z,20.90
2023-01-18T07:41:30.924Z,21.23
2023-01-18T07:44:16.231Z,20.67
2023-01-18T07:47:01.086Z,19.67
2023-01-18T07:49:46.234Z,20.42
2023-01-18T07:52:31.547Z,20.25
2023-01-18T07:55:16.842Z,20.08
2023-01-18T07:58:01.792Z,22.55
2023-01-18T08:00:47.106Z,20.90
2023-01-18T08:03:32.919Z,20.40
2023-01-18T08:06:25.691Z,20.58
2023-01-18T08:09:10.731Z,18.58
2023-01-18T08:11:56.171Z,18.55
2023-01-18T08:14:40.972Z,20.02
2023-01-18T08:17:27.424Z,20.02
2023-01-18T08:20:12.827Z,19.27
2023-01-18T08:23:00.088Z,18.08
2023-01-18T08:25:46.871Z,18.67
2023-01-18T08:28:31.972Z,18.15
2023-01-18T08:31:19.886Z,17.17
2023-01-18T08:34:05.564Z,17.20
2023-01-18T08:36:50.867Z,18.23
2023-01-18T08:39:36.157Z,16.30
2023-01-18T08:42:21.327Z,17.27
2023-01-18T08:45:07.101Z,17.45
2023-01-18T08:48:00.115Z,17.95
2023-01-18T08:50:46.557Z,15.50
2023-01-18T08:53:31.539Z,17.05
2023-01-18T08:56:18.324Z,15.85
2023-01-18T08:59:07.545Z,16.00
2023-01-18T09:01:52.774Z,14.93
2023-01-18T09:04:40.382Z,14.93
2023-01-18T09:07:27.178Z,15.48
2023-01-18T09:10:14.014Z,15.05
2023-01-18T09:12:59.881Z,15.25
2023-01-18T09:15:48.243Z,14.68
2023-01-18T09:18:33.660Z,15.73
2023-01-18T09:21:20.581Z,13.43
2023-01-18T09:24:07.558Z,15.10
2023-01-18T09:26:53.060Z,14.20
2023-01-18T09:29:38.204Z,14.50
2023-01-18T09:32:24.879Z,13.35
2023-01-18T09:35:09.842Z,13.75
2023-01-18T09:37:55.055Z,14.15
2023-01-18T09:40:44.583Z,16.05
2023-01-18T09:43:40.491Z,28.63
2023-01-18T09:46:27.408Z,17.20
2023-01-18T09:49:18.309Z,24.45
2023-01-18T09:55:16.819Z,15.60
2023-01-18T09:58:34.612Z,17.45
2023-01-18T10:01:24.871Z,13.02
2023-01-18T10:04:19.814Z,13.77
2023-01-18T10:07:11.442Z,16.48
2023-01-18T10:10:00.613Z,15.02
2023-01-18T10:13:13.171Z,13.73
2023-01-18T10:15:58.075Z,13.30
2023-01-18T10:18:45.827Z,14.23
2023-01-18T10:21:44.552Z,13.40
2023-01-18T10:24:29.988Z,13.45
2023-01-18T10:27:23.849Z,12.48
2023-01-18T10:30:47.247Z,13.63
2023-01-18T10:33:41.542Z,12.77
2023-01-18T10:36:37.868Z,13.95
2023-01-18T10:39:27.554Z,12.23
2023-01-18T10:42:20.412Z,13.40
2023-01-18T10:45:20.883Z,12.20
2023-01-18T10:48:32.335Z,14.63
2023-01-18T10:51:34.690Z,14.90
2023-01-18T10:54:26.388Z,13.07
2023-01-18T10:57:20.681Z,11.98
2023-01-18T11:00:20.816Z,11.18
2023-01-18T11:03:05.903Z,12.23
2023-01-18T11:05:51.909Z,13.77
2023-01-18T11:08:39.278Z,11.80
2023-01-18T11:11:49.899Z,14.75
2023-01-18T11:14:35.074Z,13.43
2023-01-18T11:17:20.105Z,12.45
2023-01-18T11:20:06.949Z,14.15
2023-01-18T11:23:02.804Z,13.95
2023-01-18T11:25:55.051Z,13.75
2023-01-18T11:28:53.692Z,12.77
2023-01-18T11:31:48.030Z,12.57
2023-01-18T11:34:40.570Z,13.07
2023-01-18T11:37:37.879Z,12.30
2023-01-18T11:40:29.341Z,12.40
2023-01-18T11:43:21.858Z,12.50
2023-01-18T11:46:53.255Z,12.43
2023-01-18T11:49:53.099Z,11.95
2023-01-18T11:52:46.185Z,11.98
2023-01-18T11:55:55.431Z,12.45
2023-01-18T11:58:41.023Z,11.63
2023-01-18T12:02:19.518Z,12.88
2023-01-18T12:05:15.996Z,15.98
2023-01-18T12:08:06.632Z,13.65
2023-01-18T12:10:58.428Z,11.15
2023-01-18T12:14:12.293Z,11.50
2023-01-18T12:17:24.338Z,13.70
2023-01-18T12:20:24.154Z,12.93
2023-01-18T12:23:21.987Z,12.40
2023-01-18T12:26:57.645Z,14.32
2023-01-18T12:30:07.313Z,12.23
2023-01-18T12:33:11.753Z,13.38
2023-01-18T12:36:07.884Z,13.02
2023-01-18T12:38:56.899Z,11.98
2023-01-18T12:41:56.710Z,13.02
2023-01-18T12:44:44.399Z,13.43
2023-01-18T12:47:47.258Z,12.95
2023-01-18T12:50:36.891Z,13.57
2023-01-18T12:53:27.431Z,12.98
2023-01-18T12:59:29.962Z,13.32
2023-01-18T13:02:36.259Z,12.65
2023-01-18T13:05:52.576Z,12.68
2023-01-18T13:08:46.767Z,11.90
2023-01-18T13:11:41.186Z,12.43
2023-01-18T13:14:33.336Z,12.00
2023-01-18T13:17:17.907Z,13.07
2023-01-18T13:20:36.046Z,13.35
2023-01-18T13:23:24.199Z,13.75
2023-01-18T13:26:29.665Z,13.05
2023-01-18T13:29:29.497Z,13.70
2023-01-18T13:32:34.284Z,13.45
2023-01-18T13:35:32.801Z,13.15
2023-01-18T13:38:25.453Z,14.75
2023-01-18T13:41:23.470Z,12.93
2023-01-18T13:44:31.752Z,14.82
2023-01-18T13:47:45.247Z,14.88
2023-01-18T13:50:39.892Z,14.18
2023-01-18T13:53:24.687Z,16.88
2023-01-18T13:56:27.027Z,16.85
2023-01-18T13:59:18.547Z,17.15
2023-01-18T14:02:14.581Z,16.73
2023-01-18T14:05:03.758Z,15.57
2023-01-18T14:07:52.365Z,16.50
2023-01-18T14:10:38.881Z,17.50
2023-01-18T14:13:46.923Z,17.05
2023-01-18T14:16:35.070Z,18.45
2023-01-18T14:19:21.648Z,18.98
2023-01-18T14:22:24.864Z,17.70
2023-01-18T14:25:49.764Z,18.70
2023-01-18T14:28:46.320Z,18.85
2023-01-18T14:31:39.844Z,16.13
2023-01-18T14:34:35.713Z,14.80
2023-01-18T14:37:29.570Z,15.55
2023-01-18T14:40:22.339Z,15.93
2023-01-18T14:43:15.186Z,16.02
2023-01-18T14:46:04.843Z,16.10
2023-01-18T14:48:56.513Z,16.13
2023-01-18T14:51:48.168Z,16.00
2023-01-18T14:54:34.587Z,15.75
2023-01-18T14:57:21.293Z,15.30
2023-01-18T15:00:16.934Z,16.95
2023-01-18T15:03:02.495Z,16.98
2023-01-18T15:05:51.799Z,15.80
2023-01-18T15:08:38.400Z,16.40
2023-01-18T15:11:24.575Z,17.50
2023-01-18T15:14:15.203Z,17.75
2023-01-18T15:17:04.901Z,16.48
2023-01-18T15:19:56.472Z,16.67
2023-01-18T15:22:42.333Z,16.13
2023-01-18T15:25:31.479Z,16.05
2023-01-18T15:28:23.579Z,17.83
2023-01-18T15:31:14.580Z,18.83
2023-01-18T15:34:00.152Z,18.92
2023-01-18T15:36:45.512Z,17.02
2023-01-18T15:39:34.149Z,17.75
2023-01-18T15:42:19.503Z,16.88
2023-01-18T15:45:06.664Z,17.10
2023-01-18T15:47:53.897Z,16.67
2023-01-18T15:50:46.049Z,15.30
2023-01-18T15:53:51.836Z,15.02
2023-01-18T15:56:36.609Z,15.65
2023-01-18T15:59:24.441Z,16.40
2023-01-18T16:02:19.744Z,16.10
2023-01-18T16:05:25.361Z,14.52
2023-01-18T16:08:20.288Z,14.48
2023-01-18T16:11:05.558Z,14.95
2023-01-18T16:13:56.790Z,13.80
2023-01-18T16:16:42.239Z,14.65
2023-01-18T16:19:35.649Z,15.15
2023-01-18T16:22:23.714Z,14.88
2023-01-18T16:25:14.879Z,15.38
2023-01-18T16:28:01.962Z,15.02
2023-01-18T16:30:50.141Z,15.73
2023-01-18T16:33:35.063Z,17.58
2023-01-18T16:36:20.722Z,18.10
2023-01-18T16:39:05.623Z,17.52
2023-01-18T16:41:53.989Z,18.45
2023-01-18T16:44:42.115Z,18.30
2023-01-18T16:47:27.033Z,17.27
2023-01-18T16:50:14.819Z,18.05
2023-01-18T16:52:59.272Z,18.27
2023-01-18T16:55:45.245Z,15.10
2023-01-18T16:58:29.944Z,15.93
2023-01-18T17:01:15.652Z,16.13
2023-01-18T17:04:00.431Z,17.20
2023-01-18T17:06:45.116Z,16.92
2023-01-18T17:09:32.459Z,14.05
2023-01-18T17:12:19.574Z,13.50
2023-01-18T17:15:05.673Z,13.15
2023-01-18T17:17:50.382Z,12.57
2023-01-18T17:20:35.439Z,12.05
2023-01-18T17:23:20.512Z,11.65
2023-01-18T17:26:13.975Z,10.95
2023-01-18T17:28:58.804Z,12.27
2023-01-18T17:31:52.107Z,11.02
2023-01-18T17:34:37.084Z,10.77
2023-01-18T17:37:22.117Z,9.85
2023-01-18T17:40:17.168Z,8.68
2023-01-18T17:43:17.174Z,8.55
2023-01-18T17:46:07.370Z,8.32
2023-01-18T17:48:52.236Z,8.32
2023-01-18T17:51:37.703Z,7.88
2023-01-18T17:54:22.491Z,7.80
2023-01-18T17:57:08.327Z,7.63
2023-01-18T17:59:54.866Z,7.47
2023-01-18T18:02:40.607Z,7.30
2023-01-18T18:05:25.698Z,6.70
2023-01-18T18:08:10.657Z,7.25
2023-01-18T18:10:55.760Z,6.95
2023-01-18T18:13:42.042Z,7.55
2023-01-18T18:16:26.937Z,7.80
2023-01-18T18:19:15.178Z,7.32
2023-01-18T18:22:00.726Z,6.88
2023-01-18T18:24:46.479Z,6.80
2023-01-18T18:27:44.531Z,6.90
2023-01-18T18:30:30.329Z,7.28
2023-01-18T18:33:15.689Z,6.88
2023-01-18T18:36:00.377Z,7.13
2023-01-18T18:38:45.151Z,6.45
2023-01-18T18:41:30.710Z,6.68
2023-01-18T18:44:15.967Z,7.18
2023-01-18T18:47:02.459Z,6.47
2023-01-18T18:49:49.139Z,6.05
2023-01-18T18:52:34.910Z,5.95
2023-01-18T18:55:20.156Z,6.65
2023-01-18T18:58:05.464Z,6.45
2023-01-18T19:00:50.095Z,6.00
2023-01-18T19:03:35.443Z,5.85
2023-01-18T19:06:21.913Z,5.50
2023-01-18T19:09:06.734Z,5.53
2023-01-18T19:11:55.306Z,5.47
2023-01-18T19:14:40.629Z,5.70
2023-01-18T19:17:30.615Z,5.95
2023-01-18T19:20:19.199Z,7.07
2023-01-18T19:23:04.438Z,6.82
2023-01-18T19:25:49.653Z,6.72
2023-01-18T19:28:35.409Z,7.03
2023-01-18T19:31:20.506Z,6.47
2023-01-18T19:34:05.809Z,6.88
2023-01-18T19:36:50.852Z,7.13
2023-01-18T19:39:35.786Z,7.47
2023-01-18T19:42:20.348Z,6.78
2023-01-18T19:45:08.103Z,7.35
2023-01-18T19:47:53.384Z,7.78
2023-01-18T19:50:38.272Z,7.35
2023-01-18T19:53:23.172Z,7.55
2023-01-18T19:56:09.664Z,7.78
2023-01-18T19:58:54.452Z,8.00
2023-01-18T20:01:39.569Z,7.85
2023-01-18T20:04:24.415Z,9.13
2023-01-18T20:07:10.442Z,10.00
2023-01-18T20:09:55.514Z,10.20
2023-01-18T20:12:40.418Z,9.23
2023-01-18T20:15:25.573Z,9.15
2023-01-18T20:18:11.381Z,8.55
2023-01-18T20:20:57.121Z,8.95
2023-01-18T20:23:44.213Z,7.75
2023-01-18T20:26:36.721Z,7.95
2023-01-18T20:29:23.140Z,8.38
2023-01-18T20:32:15.497Z,8.27
2023-01-18T20:35:01.395Z,7.72
2023-01-18T20:37:46.239Z,7.22
2023-01-18T20:40:31.433Z,5.90
2023-01-18T20:43:16.339Z,5.60
2023-01-18T20:46:07.417Z,5.78
2023-01-18T20:48:52.396Z,6.32
2023-01-18T20:51:39.716Z,7.00
2023-01-18T20:54:24.452Z,7.50
2023-01-18T20:57:09.482Z,8.23
2023-01-18T20:59:54.842Z,7.60
2023-01-18T21:02:40.927Z,8.55
2023-01-18T21:05:28.834Z,9.93
2023-01-18T21:08:14.209Z,9.35
2023-01-18T21:10:59.104Z,7.88
2023-01-18T21:13:44.068Z,8.52
2023-01-18T21:16:29.626Z,8.55
2023-01-18T21:19:14.554Z,9.13
2023-01-18T21:21:59.389Z,8.77
2023-01-18T21:24:44.385Z,8.85
2023-01-18T21:27:32.534Z,8.52
2023-01-18T21:30:17.447Z,7.35
2023-01-18T21:33:02.130Z,6.22
2023-01-18T21:35:47.163Z,5.93
2023-01-18T21:38:32.428Z,5.85
2023-01-18T21:41:35.672Z,5.50
2023-01-18T21:44:39.047Z,5.38
2023-01-18T21:50:29.539Z,5.00
2023-01-18T21:53:33.400Z,4.30
2023-01-18T21:56:18.411Z,4.20
2023-01-18T21:59:03.518Z,4.07
2023-01-18T22:01:48.497Z,4.18
2023-01-18T22:04:52.191Z,3.65
2023-01-18T22:07:36.900Z,3.22
2023-01-18T22:10:21.953Z,3.33
2023-01-18T22:13:07.148Z,3.63
2023-01-18T22:15:51.965Z,3.72
2023-01-18T22:18:36.918Z,4.03
2023-01-18T22:21:24.747Z,3.85
2023-01-18T22:24:11.498Z,3.80
2023-01-18T22:26:56.392Z,3.83
2023-01-18T22:29:41.331Z,3.97
2023-01-18T22:32:26.337Z,4.38
2023-01-18T22:35:11.114Z,4.72
2023-01-18T22:37:56.138Z,4.85
2023-01-18T22:40:41.282Z,4.82
2023-01-18T22:43:26.417Z,5.00
2023-01-18T22:46:16.989Z,4.78
2023-01-18T22:49:02.363Z,4.10
2023-01-18T22:51:47.188Z,4.32
2023-01-18T22:54:32.154Z,4.97
2023-01-18T22:57:17.031Z,4.70
2023-01-18T23:00:04.236Z,5.13
2023-01-18T23:02:48.933Z,4.32
2023-01-18T23:05:35.442Z,5.93
2023-01-18T23:08:20.475Z,4.80
2023-01-18T23:11:05.187Z,4.63
2023-01-18T23:14:13.547Z,4.00
2023-01-18T23:17:16.927Z,3.20
2023-01-18T23:20:01.866Z,2.85
2023-01-18T23:22:46.726Z,2.63
2023-01-18T23:25:34.359Z,2.38
2023-01-18T23:28:38.975Z,2.67
2023-01-18T23:31:23.583Z,2.05
2023-01-18T23:34:09.315Z,2.00
2023-01-18T23:36:54.527Z,2.00
2023-01-18T23:39:57.825Z,2.30
2023-01-18T23:43:01.634Z,2.20
2023-01-18T23:46:05.176Z,2.13
2023-01-18T23:49:08.589Z,2.10
2023-01-18T23:54:57.071Z,2.00
2023-01-18T23:57:42.033Z,2.13
